Time;durP1;ratioP1;P1;durP2;ratioP2;P2;SDS_P1;SDS_P2;PMS_P1;PMS_P2;Temp;Humidity;BMP_temperature;BMP_pressure;BME280_temperature;BME280_humidity;BME280_pressure;Samples;Min_cycle;Max_cycle;Signal;HPM_P1;HPM_P2
2023/12/01 04:02:46;;;;;;;3.10;2.80;;;22.90;25.50;;;;;;4896560;28;45763;-87
2023/12/01 04:05:17;;;;;;;2.78;2.58;;;22.90;25.60;;;;;;4884466;28;45185;-81
2023/12/01 04:07:45;;;;;;;2.78;2.50;;;22.90;25.60;;;;;;4901306;28;45503;-85
2023/12/01 04:10:12;;;;;;;3.03;2.60;;;22.90;25.60;;;;;;4907979;28;45344;-83
2023/12/01 04:12:45;;;;;;;2.75;2.55;;;22.90;25.60;;;;;;4893597;28;45059;-82
2023/12/01 04:15:14;;;;;;;2.67;2.45;;;22.90;25.60;;;;;;4902305;28;44790;-84
2023/12/01 04:17:50;;;;;;;2.70;2.50;;;22.90;25.60;;;;;;4889056;28;45624;-85
2023/12/01 04:20:25;;;;;;;3.00;2.70;;;22.90;25.60;;;;;;4898737;28;45232;-88
2023/12/01 04:22:52;;;;;;;2.78;2.53;;;22.80;25.60;;;;;;4893142;28;45537;-81
2023/12/01 04:25:51;;;;;;;2.60;2.40;;;22.80;25.60;;;;;;4894117;28;45256;-87
2023/12/01 04:29:33;;;;;;;2.80;2.60;;;22.80;25.60;;;;;;4917955;28;45827;-86
2023/12/01 04:32:11;;;;;;;2.67;2.47;;;22.80;25.60;;;;;;4902969;28;45110;-84
2023/12/01 04:34:57;;;;;;;2.60;2.40;;;22.80;25.60;;;;;;4930130;28;45267;-87
2023/12/01 04:37:31;;;;;;;2.70;2.50;;;22.80;25.60;;;;;;4912082;28;45457;-86
2023/12/01 04:40:13;;;;;;;3.03;2.72;;;22.80;25.60;;;;;;4917403;28;46688;-90
2023/12/01 04:42:57;;;;;;;2.80;2.60;;;22.70;25.70;;;;;;4925399;28;45067;-86
2023/12/01 04:45:41;;;;;;;2.60;2.38;;;22.80;25.70;;;;;;4905845;28;44999;-93
2023/12/01 04:48:34;;;;;;;3.00;2.70;;;22.80;25.70;;;;;;4900292;28;45212;-84
2023/12/01 04:52:17;;;;;;;3.03;2.72;;;22.70;25.60;;;;;;4932457;28;46248;-84
2023/12/01 04:55:25;;;;;;;3.38;3.05;;;22.80;25.70;;;;;;4931635;28;44967;-88
2023/12/01 04:57:54;;;;;;;3.50;3.20;;;22.80;25.70;;;;;;4920644;28;45406;-85
2023/12/01 05:00:25;;;;;;;4.20;3.80;;;22.70;25.70;;;;;;4898729;28;44891;-89
2023/12/01 05:06:16;;;;;;;4.68;4.25;;;22.70;25.70;;;;;;4853396;28;45168;-88
2023/12/01 05:08:48;;;;;;;4.82;4.32;;;22.70;25.70;;;;;;4918729;28;45414;-91
2023/12/01 05:12:21;;;;;;;5.05;4.55;;;22.70;25.80;;;;;;4920517;28;45032;-84
2023/12/01 05:19:41;;;;;;;6.25;5.38;;;22.60;25.70;;;;;;4791619;29;45394;-86
2023/12/01 05:22:50;;;;;;;6.10;5.43;;;22.60;25.80;;;;;;4782329;29;45539;-89
2023/12/01 05:26:15;;;;;;;5.70;5.20;;;22.60;25.80;;;;;;4786444;29;44780;-90
2023/12/01 05:29:03;;;;;;;5.75;5.15;;;22.60;25.80;;;;;;4858360;29;45908;-86
2023/12/01 05:39:16;;;;;;;4.87;4.43;;;22.50;25.80;;;;;;4914453;28;44798;-88
2023/12/01 05:43:10;;;;;;;6.60;5.53;;;22.60;25.90;;;;;;4920087;28;45346;-85
2023/12/01 05:46:39;;;;;;;5.18;4.68;;;22.60;25.90;;;;;;4914472;28;44678;-86
2023/12/01 05:49:18;;;;;;;5.40;4.90;;;22.50;25.90;;;;;;4909530;28;45352;-83
2023/12/01 05:52:50;;;;;;;5.47;4.97;;;22.60;25.90;;;;;;4889939;28;45199;-81
2023/12/01 05:55:57;;;;;;;5.10;4.60;;;22.60;25.90;;;;;;4853139;29;45406;-88
2023/12/01 06:06:30;;;;;;;4.72;4.32;;;22.60;25.90;;;;;;4924576;28;45641;-86
2023/12/01 06:09:36;;;;;;;5.20;4.68;;;22.60;25.90;;;;;;4915364;28;45582;-86
2023/12/01 06:12:26;;;;;;;4.72;4.32;;;22.60;26.00;;;;;;4920872;28;44702;-87
2023/12/01 06:15:20;;;;;;;5.35;4.50;;;22.60;26.00;;;;;;4904418;28;45222;-88
2023/12/01 06:17:58;;;;;;;5.00;4.50;;;22.60;26.00;;;;;;4920957;28;45370;-86
2023/12/01 06:20:47;;;;;;;6.00;4.65;;;22.70;26.00;;;;;;4918228;28;46494;-87
2023/12/01 06:23:29;;;;;;;4.65;4.25;;;22.70;26.00;;;;;;4922253;28;45591;-84
2023/12/01 06:26:08;;;;;;;4.68;4.18;;;22.70;26.00;;;;;;4898314;28;45336;-91
2023/12/01 06:28:37;;;;;;;4.68;4.22;;;22.70;26.00;;;;;;4912236;28;45511;-85
2023/12/01 06:31:05;;;;;;;4.50;4.10;;;22.70;26.00;;;;;;4884604;28;47601;-84
2023/12/01 06:33:35;;;;;;;4.95;4.45;;;22.70;26.00;;;;;;4876768;28;44939;-89
2023/12/01 06:36:09;;;;;;;4.50;4.10;;;22.80;26.00;;;;;;4902608;28;45149;-84
2023/12/01 06:38:35;;;;;;;5.50;4.35;;;22.80;26.00;;;;;;4919566;28;44914;-81
2023/12/01 06:41:02;;;;;;;4.53;4.13;;;22.80;26.00;;;;;;4885203;28;45622;-85
2023/12/01 06:43:34;;;;;;;5.30;4.35;;;22.80;26.00;;;;;;4910452;28;45029;-85
2023/12/01 06:46:29;;;;;;;4.85;4.38;;;22.80;25.90;;;;;;4883620;28;45461;-89
2023/12/01 06:49:42;;;;;;;4.50;4.10;;;22.80;25.90;;;;;;4920998;28;45468;-89
2023/12/01 06:52:21;;;;;;;4.95;4.45;;;22.90;26.00;;;;;;4903388;28;45667;-85
2023/12/01 06:54:51;;;;;;;4.63;4.22;;;22.90;25.90;;;;;;4897675;28;45326;-89
2023/12/01 06:57:22;;;;;;;6.45;4.28;;;22.90;26.40;;;;;;4895112;28;45494;-91
2023/12/01 07:00:01;;;;;;;4.75;4.32;;;22.90;25.90;;;;;;4905879;28;45774;-86
2023/12/01 07:02:37;;;;;;;5.32;4.82;;;23.00;25.90;;;;;;4901175;28;45510;-87
2023/12/01 07:05:08;;;;;;;5.43;4.85;;;23.00;26.00;;;;;;4893490;28;45341;-89
2023/12/01 07:07:49;;;;;;;5.20;4.70;;;23.00;25.90;;;;;;4884627;28;45355;-84
2023/12/01 07:10:27;;;;;;;4.93;4.50;;;23.10;25.90;;;;;;4893274;28;45447;-86
2023/12/01 07:13:00;;;;;;;5.80;5.20;;;23.10;25.90;;;;;;4904764;28;46280;-85
2023/12/01 07:15:41;;;;;;;5.20;4.70;;;23.10;25.90;;;;;;4888928;28;45516;-86
2023/12/01 07:18:29;;;;;;;5.38;4.78;;;23.10;25.90;;;;;;4904465;28;44854;-85
2023/12/01 07:20:54;;;;;;;5.50;5.00;;;23.10;25.90;;;;;;4888030;28;45624;-88
2023/12/01 07:23:22;;;;;;;5.33;4.80;;;23.20;25.90;;;;;;4897129;28;45827;-83
2023/12/01 07:25:50;;;;;;;5.45;4.95;;;23.20;25.80;;;;;;4917462;28;45088;-86
2023/12/01 07:28:24;;;;;;;5.28;4.78;;;23.20;25.80;;;;;;4902721;28;44876;-84
2023/12/01 07:30:59;;;;;;;5.13;4.63;;;23.30;25.80;;;;;;4911377;28;45407;-85
2023/12/01 07:33:28;;;;;;;5.00;4.50;;;23.30;25.80;;;;;;4901095;28;45831;-87
2023/12/01 07:35:57;;;;;;;5.05;4.55;;;23.30;25.80;;;;;;4908066;28;45168;-86
2023/12/01 07:38:25;;;;;;;4.97;4.50;;;23.30;25.70;;;;;;4902563;28;45679;-88
2023/12/01 07:40:54;;;;;;;4.93;4.43;;;23.30;25.70;;;;;;4900538;28;45321;-84
2023/12/01 07:43:21;;;;;;;4.88;4.38;;;23.40;25.70;;;;;;4900724;28;45629;-79
2023/12/01 07:45:47;;;;;;;4.90;4.13;;;23.50;25.70;;;;;;4895889;28;45178;-87
2023/12/01 07:48:13;;;;;;;5.43;4.30;;;23.50;25.70;;;;;;4902595;28;45329;-84
2023/12/01 07:50:40;;;;;;;4.53;4.13;;;23.50;25.60;;;;;;4911863;28;45361;-82
2023/12/01 07:53:05;;;;;;;5.03;4.17;;;23.50;25.60;;;;;;4931514;28;45763;-87
2023/12/01 07:55:31;;;;;;;4.75;4.35;;;23.60;25.60;;;;;;4917076;28;45259;-85
2023/12/01 07:57:57;;;;;;;4.63;4.18;;;23.60;25.60;;;;;;4911065;28;45193;-84
2023/12/01 08:00:23;;;;;;;3.97;3.58;;;23.60;25.50;;;;;;4912330;28;45210;-88
2023/12/01 08:02:52;;;;;;;4.07;3.67;;;23.60;25.50;;;;;;4901285;28;45866;-84
2023/12/01 08:05:18;;;;;;;4.00;3.70;;;23.70;25.50;;;;;;4884305;28;45187;-84
2023/12/01 08:07:51;;;;;;;3.95;3.65;;;23.70;25.50;;;;;;4900279;28;45499;-83
2023/12/01 08:10:20;;;;;;;4.20;3.80;;;23.70;25.40;;;;;;4916275;28;46106;-86
2023/12/01 08:12:47;;;;;;;3.93;3.60;;;23.80;25.50;;;;;;4899285;28;44995;-89
2023/12/01 08:15:13;;;;;;;3.83;3.53;;;23.80;25.40;;;;;;4912736;28;45329;-87
2023/12/01 08:17:40;;;;;;;4.53;3.93;;;23.80;25.40;;;;;;4893689;28;44990;-90
2023/12/01 08:20:06;;;;;;;3.80;3.50;;;23.80;25.40;;;;;;4904692;28;45405;-84
2023/12/01 08:22:37;;;;;;;4.15;3.75;;;23.80;25.40;;;;;;4916793;28;46267;-85
2023/12/01 08:25:09;;;;;;;4.33;3.80;;;23.90;25.40;;;;;;4913503;28;45422;-93
2023/12/01 08:27:35;;;;;;;3.60;3.30;;;23.90;25.40;;;;;;4898852;28;45209;-84
2023/12/01 08:30:12;;;;;;;4.07;3.72;;;23.90;25.30;;;;;;4916518;28;45049;-86
2023/12/01 08:32:38;;;;;;;3.70;3.40;;;23.90;25.30;;;;;;4899922;28;46273;-85
2023/12/01 08:35:04;;;;;;;4.25;3.85;;;23.90;25.30;;;;;;4915370;28;45472;-91
2023/12/01 08:37:30;;;;;;;4.00;3.60;;;24.00;25.40;;;;;;4900226;28;44813;-82
2023/12/01 08:39:56;;;;;;;3.83;3.53;;;24.00;25.30;;;;;;4899664;28;45577;-85
2023/12/01 08:42:21;;;;;;;3.80;3.40;;;24.00;25.30;;;;;;4897110;28;46105;-87
2023/12/01 08:44:47;;;;;;;3.60;3.30;;;24.00;25.30;;;;;;4888393;28;44798;-88
2023/12/01 08:47:13;;;;;;;3.20;2.90;;;24.00;25.30;;;;;;4910495;28;44714;-87
2023/12/01 08:49:40;;;;;;;3.85;3.42;;;24.00;25.30;;;;;;4914747;28;45268;-85
2023/12/01 08:52:07;;;;;;;3.70;3.40;;;24.10;25.30;;;;;;4896648;28;46852;-85
2023/12/01 08:54:55;;;;;;;3.50;3.20;;;24.10;25.30;;;;;;4899686;28;45195;-85
2023/12/01 08:57:21;;;;;;;3.50;3.20;;;24.10;25.30;;;;;;4902373;28;44843;-88
2023/12/01 08:59:47;;;;;;;3.75;3.38;;;24.10;25.30;;;;;;4900358;28;44675;-87
2023/12/01 09:02:14;;;;;;;3.37;3.07;;;24.10;25.30;;;;;;4901083;28;45870;-86
2023/12/01 09:04:39;;;;;;;3.17;2.87;;;24.10;25.20;;;;;;4894149;28;45998;-88
2023/12/01 09:07:05;;;;;;;3.10;2.90;;;24.10;25.20;;;;;;4878158;28;45907;-88
2023/12/01 09:09:31;;;;;;;3.63;3.33;;;24.10;25.20;;;;;;4913780;28;45220;-84
2023/12/01 09:11:57;;;;;;;3.42;3.13;;;24.10;25.20;;;;;;4892751;28;45534;-86
2023/12/01 09:14:23;;;;;;;3.03;2.83;;;24.10;25.20;;;;;;4899374;28;44871;-87
2023/12/01 09:16:49;;;;;;;3.50;3.20;;;24.10;25.20;;;;;;4890517;28;45792;-84
2023/12/01 09:19:15;;;;;;;3.20;2.90;;;24.10;25.20;;;;;;4915837;28;45107;-88
2023/12/01 09:21:41;;;;;;;3.42;3.13;;;24.10;25.20;;;;;;4918279;28;46146;-85
2023/12/01 09:24:07;;;;;;;3.20;2.90;;;24.20;25.20;;;;;;4905564;28;46287;-84
2023/12/01 09:26:32;;;;;;;3.10;2.80;;;24.10;25.20;;;;;;4893832;28;45331;-84
2023/12/01 09:28:58;;;;;;;3.27;2.97;;;24.10;25.10;;;;;;4893973;28;45854;-88
2023/12/01 09:31:26;;;;;;;3.22;2.92;;;24.10;25.20;;;;;;4906798;28;46633;-85
2023/12/01 09:33:51;;;;;;;3.00;2.80;;;24.20;25.20;;;;;;4896384;28;45153;-83
2023/12/01 09:36:17;;;;;;;3.50;3.20;;;24.20;25.20;;;;;;4874941;28;44964;-84
2023/12/01 09:39:05;;;;;;;3.20;2.90;;;24.20;25.20;;;;;;4896410;28;45439;-84
2023/12/01 09:41:35;;;;;;;3.33;3.03;;;24.20;25.10;;;;;;4896222;28;45256;-88
2023/12/01 09:44:01;;;;;;;3.28;2.97;;;24.20;25.10;;;;;;4879371;28;45084;-84
2023/12/01 09:46:34;;;;;;;3.43;3.13;;;24.20;25.10;;;;;;4862640;28;45506;-86
2023/12/01 09:48:59;;;;;;;3.30;3.00;;;24.20;25.10;;;;;;4910082;28;45780;-88
2023/12/01 09:51:25;;;;;;;3.33;3.03;;;24.20;25.60;;;;;;4877520;28;45322;-86
2023/12/01 09:53:51;;;;;;;3.35;3.00;;;24.20;25.10;;;;;;4883178;28;45469;-86
2023/12/01 09:56:19;;;;;;;3.55;3.15;;;24.20;25.10;;;;;;4877934;28;45613;-83
2023/12/01 09:58:46;;;;;;;3.00;2.80;;;24.20;25.10;;;;;;4892448;28;45180;-85
2023/12/01 10:01:15;;;;;;;3.28;2.97;;;24.20;25.10;;;;;;4891962;28;46866;-82
2023/12/01 10:03:41;;;;;;;3.57;3.27;;;24.20;25.10;;;;;;4913608;28;45585;-82
2023/12/01 10:06:08;;;;;;;3.22;2.97;;;24.20;25.10;;;;;;4881700;28;44682;-87
2023/12/01 10:08:36;;;;;;;3.40;3.10;;;24.20;25.10;;;;;;4900697;28;45374;-84
2023/12/01 10:11:20;;;;;;;3.30;3.10;;;24.20;25.10;;;;;;4908919;28;45614;-83
2023/12/01 10:13:48;;;;;;;3.70;3.40;;;24.20;25.10;;;;;;4897783;28;45270;-87
2023/12/01 10:16:15;;;;;;;3.50;3.20;;;24.20;25.30;;;;;;4910648;28;45543;-86
2023/12/01 10:18:58;;;;;;;3.25;2.95;;;24.20;25.10;;;;;;4900297;28;45845;-88
2023/12/01 10:21:47;;;;;;;3.00;2.70;;;24.20;25.10;;;;;;4898141;28;46266;-86
2023/12/01 10:24:22;;;;;;;2.90;2.70;;;24.20;25.10;;;;;;4913839;28;45328;-87
2023/12/01 10:27:01;;;;;;;3.33;3.03;;;24.20;25.10;;;;;;4898549;28;45528;-86
2023/12/01 10:29:30;;;;;;;3.00;2.80;;;24.20;25.10;;;;;;4918157;28;45471;-88
2023/12/01 10:32:00;;;;;;;3.55;3.25;;;24.20;25.10;;;;;;4924627;28;47289;-86
2023/12/01 10:34:25;;;;;;;3.05;2.85;;;24.20;25.10;;;;;;4885772;28;44987;-86
2023/12/01 10:36:54;;;;;;;3.45;3.15;;;24.20;25.10;;;;;;4878473;28;44941;-86
2023/12/01 10:39:30;;;;;;;2.85;2.65;;;24.20;25.10;;;;;;4902293;28;45200;-87
2023/12/01 10:41:56;;;;;;;3.30;2.92;;;24.20;25.10;;;;;;4881587;28;45951;-87
2023/12/01 10:44:26;;;;;;;3.40;3.10;;;24.20;25.10;;;;;;4889746;28;45250;-81
2023/12/01 10:46:53;;;;;;;3.60;3.30;;;24.20;25.10;;;;;;4896355;28;44664;-84
2023/12/01 10:49:19;;;;;;;3.22;2.92;;;24.20;25.10;;;;;;4919885;28;45498;-83
2023/12/01 10:51:46;;;;;;;3.97;3.60;;;24.20;25.10;;;;;;4934621;28;45448;-85
2023/12/01 10:54:12;;;;;;;3.90;3.50;;;24.20;25.10;;;;;;4889687;28;45178;-87
2023/12/01 10:57:05;;;;;;;3.97;3.50;;;24.20;25.10;;;;;;4915542;28;45389;-82
2023/12/01 10:59:31;;;;;;;4.23;3.80;;;24.20;25.10;;;;;;4934115;28;45040;-88
2023/12/01 11:01:59;;;;;;;4.63;4.15;;;24.20;25.10;;;;;;4894780;28;45644;-87
2023/12/01 11:04:28;;;;;;;5.60;4.50;;;24.20;25.10;;;;;;4902728;28;45259;-88
2023/12/01 11:07:07;;;;;;;5.32;4.55;;;24.20;25.10;;;;;;4901917;28;45351;-85
2023/12/01 11:09:39;;;;;;;6.22;4.68;;;24.20;25.10;;;;;;4918249;28;45315;-86
2023/12/01 11:12:22;;;;;;;7.80;5.25;;;24.20;25.10;;;;;;4929245;28;45784;-83
2023/12/01 11:14:51;;;;;;;8.98;6.13;;;24.20;25.10;;;;;;4888264;28;45314;-89
2023/12/01 11:17:17;;;;;;;9.02;5.82;;;24.20;25.10;;;;;;4910905;28;45044;-87
2023/12/01 11:19:43;;;;;;;8.05;5.50;;;24.20;25.10;;;;;;4903217;28;45227;-83
2023/12/01 11:22:32;;;;;;;9.68;6.30;;;24.20;25.10;;;;;;4898646;28;46042;-85
2023/12/01 11:24:58;;;;;;;9.05;5.88;;;24.20;25.10;;;;;;4934720;28;45415;-83
2023/12/01 11:27:26;;;;;;;8.60;6.00;;;24.20;25.10;;;;;;4875865;28;44950;-82
2023/12/01 11:30:07;;;;;;;8.23;5.80;;;24.20;25.10;;;;;;4902764;28;44971;-85
2023/12/01 11:32:33;;;;;;;8.55;5.88;;;24.20;25.10;;;;;;4896250;28;46177;-85
2023/12/01 11:35:09;;;;;;;9.48;6.07;;;24.20;25.10;;;;;;4916216;28;45234;-84
2023/12/01 11:37:54;;;;;;;8.93;5.88;;;24.20;25.10;;;;;;4898838;28;45443;-84
2023/12/01 11:40:24;;;;;;;8.23;5.93;;;24.10;25.10;;;;;;4916715;28;45372;-87
2023/12/01 11:42:50;;;;;;;10.38;6.07;;;24.10;25.10;;;;;;4900164;28;46251;-83
2023/12/01 11:45:16;;;;;;;9.53;5.60;;;24.10;25.20;;;;;;4915161;28;45444;-80
2023/12/01 11:47:42;;;;;;;10.10;6.00;;;24.20;25.10;;;;;;4903668;28;45694;-89
2023/12/01 11:50:12;;;;;;;8.97;5.87;;;24.10;25.10;;;;;;4902504;28;44828;-84
2023/12/01 11:52:38;;;;;;;8.35;5.60;;;24.10;25.10;;;;;;4915679;28;45281;-86
2023/12/01 11:55:14;;;;;;;10.00;6.00;;;24.20;25.20;;;;;;4885099;28;45668;-88
2023/12/01 11:57:43;;;;;;;9.07;5.90;;;24.10;25.10;;;;;;4889619;28;45643;-84
2023/12/01 12:00:10;;;;;;;7.83;5.57;;;24.10;25.10;;;;;;4902577;28;45420;-83
2023/12/01 12:02:37;;;;;;;8.80;5.37;;;24.10;25.10;;;;;;4883454;28;46331;-85
2023/12/01 12:05:06;;;;;;;9.52;5.40;;;24.10;25.20;;;;;;4916849;28;45707;-92
2023/12/01 12:07:33;;;;;;;7.57;4.97;;;24.10;25.10;;;;;;4889224;28;45706;-85
2023/12/01 12:09:59;;;;;;;7.65;4.90;;;24.10;25.20;;;;;;4918189;28;44977;-87
2023/12/01 12:12:24;;;;;;;8.00;5.30;;;24.10;25.20;;;;;;4896194;28;46124;-89
2023/12/01 12:14:52;;;;;;;7.23;5.23;;;24.10;25.20;;;;;;4886275;28;45736;-86
2023/12/01 12:17:20;;;;;;;6.95;4.70;;;24.10;25.20;;;;;;4879100;28;45163;-85
2023/12/01 12:19:47;;;;;;;6.57;4.70;;;24.10;25.20;;;;;;4915940;28;45194;-84
2023/12/01 12:22:13;;;;;;;7.30;4.85;;;24.10;25.20;;;;;;4895433;28;45939;-87
2023/12/01 12:24:46;;;;;;;7.03;4.30;;;24.10;25.20;;;;;;4888554;28;45563;-85
2023/12/01 12:27:12;;;;;;;6.63;4.55;;;24.10;25.70;;;;;;4930745;28;45071;-82
2023/12/01 12:29:38;;;;;;;6.67;4.53;;;24.10;25.20;;;;;;4934004;28;45322;-86
2023/12/01 12:32:05;;;;;;;5.43;3.85;;;24.10;25.20;;;;;;4912851;28;45275;-86
2023/12/01 12:34:31;;;;;;;5.70;3.90;;;24.10;25.20;;;;;;4901712;28;45609;-85
2023/12/01 12:36:57;;;;;;;6.03;4.23;;;24.10;25.20;;;;;;4913041;28;45387;-89
2023/12/01 12:39:23;;;;;;;6.93;4.03;;;24.00;25.10;;;;;;4913339;28;45055;-86
2023/12/01 12:41:50;;;;;;;5.28;3.97;;;24.10;25.20;;;;;;4897394;28;45801;-82
2023/12/01 12:44:17;;;;;;;5.35;3.78;;;24.10;25.20;;;;;;4917566;28;46548;-86
2023/12/01 12:46:45;;;;;;;5.57;3.70;;;24.00;25.20;;;;;;4914550;28;45311;-83
2023/12/01 12:49:11;;;;;;;5.10;3.70;;;24.00;25.20;;;;;;4903174;28;44914;-85
2023/12/01 12:51:38;;;;;;;5.68;3.50;;;24.00;25.20;;;;;;4916939;28;46398;-87
2023/12/01 12:54:06;;;;;;;4.50;3.53;;;24.00;25.20;;;;;;4919769;28;45276;-82
2023/12/01 12:56:33;;;;;;;4.95;3.30;;;24.00;25.20;;;;;;4913132;28;45319;-86
2023/12/01 12:58:58;;;;;;;4.35;3.40;;;24.00;25.20;;;;;;4915255;28;45494;-84
2023/12/01 13:01:25;;;;;;;3.63;2.90;;;24.00;25.20;;;;;;4895400;28;45691;-86
2023/12/01 13:03:51;;;;;;;4.55;3.30;;;24.00;25.20;;;;;;4915847;28;45645;-84
2023/12/01 13:06:19;;;;;;;5.03;2.95;;;24.00;25.20;;;;;;4901616;28;45181;-85
2023/12/01 13:08:45;;;;;;;3.30;2.67;;;24.00;25.20;;;;;;4897577;28;45028;-84
2023/12/01 13:11:11;;;;;;;4.67;2.80;;;24.00;25.20;;;;;;4900620;28;46444;-83
2023/12/01 13:13:38;;;;;;;3.83;3.10;;;24.00;25.20;;;;;;4914924;28;45486;-82
2023/12/01 13:16:04;;;;;;;5.40;2.80;;;24.00;25.20;;;;;;4915649;28;45192;-85
2023/12/01 13:18:31;;;;;;;4.43;2.63;;;23.90;25.20;;;;;;4903314;28;45395;-84
2023/12/01 13:20:59;;;;;;;3.40;2.72;;;24.00;25.20;;;;;;4929637;28;45898;-85
2023/12/01 13:23:25;;;;;;;3.97;2.70;;;24.00;25.30;;;;;;4904992;28;45572;-87
2023/12/01 13:25:50;;;;;;;3.63;2.70;;;23.90;25.20;;;;;;4915218;28;44819;-85
2023/12/01 13:28:16;;;;;;;3.80;2.60;;;23.90;25.20;;;;;;4900444;28;45514;-84
2023/12/01 13:30:42;;;;;;;4.20;2.70;;;23.90;25.20;;;;;;4876836;28;47144;-86
2023/12/01 13:33:08;;;;;;;3.85;2.90;;;23.90;25.20;;;;;;4932468;28;45344;-83
2023/12/01 13:35:34;;;;;;;3.92;2.53;;;23.90;25.20;;;;;;4917150;28;45253;-86
2023/12/01 13:38:01;;;;;;;3.10;2.35;;;23.90;25.20;;;;;;4916614;28;45487;-82
2023/12/01 13:40:27;;;;;;;3.15;2.50;;;23.90;25.30;;;;;;4919171;28;46321;-89
2023/12/01 13:42:53;;;;;;;3.33;2.53;;;23.90;25.20;;;;;;4903393;28;45509;-80
2023/12/01 13:45:19;;;;;;;3.33;2.40;;;23.90;25.30;;;;;;4914917;28;45541;-92
2023/12/01 13:47:45;;;;;;;3.33;2.50;;;23.90;25.20;;;;;;4887553;28;46232;-86
2023/12/01 13:50:11;;;;;;;2.50;2.30;;;23.90;25.30;;;;;;4901002;28;46309;-84
2023/12/01 13:52:37;;;;;;;2.90;2.38;;;23.90;25.30;;;;;;4889249;28;45246;-84
2023/12/01 13:55:07;;;;;;;3.00;2.30;;;23.90;25.30;;;;;;4900517;28;45509;-91
2023/12/01 13:57:38;;;;;;;2.73;2.30;;;23.90;25.30;;;;;;4890924;28;45289;-89
2023/12/01 14:00:14;;;;;;;2.70;2.30;;;23.90;25.30;;;;;;4902329;28;46272;-93
2023/12/01 14:02:42;;;;;;;2.72;2.30;;;23.80;25.20;;;;;;4881719;28;45490;-86
2023/12/01 14:05:08;;;;;;;2.70;2.47;;;23.80;25.20;;;;;;4933055;28;45539;-83
2023/12/01 14:07:35;;;;;;;2.42;2.20;;;23.90;25.30;;;;;;4918918;28;45297;-83
2023/12/01 14:10:01;;;;;;;2.60;2.40;;;23.80;25.20;;;;;;4933559;28;45422;-81
2023/12/01 14:12:26;;;;;;;3.10;2.28;;;23.80;25.30;;;;;;4915926;28;45312;-85
2023/12/01 14:14:52;;;;;;;2.70;2.00;;;23.80;25.30;;;;;;4898095;28;46201;-85
2023/12/01 14:17:20;;;;;;;2.47;2.20;;;23.80;25.30;;;;;;4902631;28;45298;-85
2023/12/01 14:19:46;;;;;;;3.30;2.25;;;23.80;25.30;;;;;;4891590;28;47950;-84
2023/12/01 14:22:12;;;;;;;2.28;1.98;;;23.80;25.30;;;;;;4901754;28;45965;-84
2023/12/01 14:24:38;;;;;;;2.47;2.20;;;23.80;25.30;;;;;;4910198;28;45532;-85
2023/12/01 14:27:05;;;;;;;2.40;2.20;;;23.80;25.30;;;;;;4915940;28;45576;-85
2023/12/01 14:29:32;;;;;;;2.13;1.80;;;23.80;25.30;;;;;;4905877;28;45598;-84
2023/12/01 14:32:00;;;;;;;2.22;1.98;;;23.70;25.20;;;;;;4917031;28;46069;-85
2023/12/01 14:34:26;;;;;;;3.00;2.37;;;23.70;25.30;;;;;;4921713;28;44937;-82
2023/12/01 14:36:52;;;;;;;3.17;2.20;;;23.70;25.70;;;;;;4904865;28;45342;-85
2023/12/01 14:39:18;;;;;;;2.10;1.90;;;23.70;25.30;;;;;;4911126;28;46028;-81
2023/12/01 14:41:43;;;;;;;2.63;2.42;;;23.70;25.30;;;;;;4925270;28;45032;-83
2023/12/01 14:44:09;;;;;;;2.20;2.00;;;23.70;25.30;;;;;;4896893;28;44751;-82
2023/12/01 14:46:36;;;;;;;2.75;2.20;;;23.70;25.30;;;;;;4898916;28;45314;-87
2023/12/01 14:49:01;;;;;;;2.45;2.22;;;23.80;25.40;;;;;;4916480;28;46307;-87
2023/12/01 14:51:27;;;;;;;2.35;2.10;;;23.80;25.30;;;;;;4916977;28;46584;-85
2023/12/01 14:53:56;;;;;;;3.17;2.15;;;23.70;25.30;;;;;;4917210;28;45469;-85
2023/12/01 14:56:22;;;;;;;2.70;2.30;;;23.70;25.30;;;;;;4914008;28;45201;-85
2023/12/01 14:58:48;;;;;;;2.40;2.20;;;23.70;25.30;;;;;;4902902;28;46161;-86
2023/12/01 15:01:13;;;;;;;2.63;2.30;;;23.70;25.30;;;;;;4916640;28;45059;-84
2023/12/01 15:03:39;;;;;;;2.40;2.10;;;23.70;25.40;;;;;;4916555;28;45491;-85
2023/12/01 15:06:07;;;;;;;2.37;2.17;;;23.70;25.30;;;;;;4885260;28;45883;-85
2023/12/01 15:08:33;;;;;;;2.92;2.40;;;23.60;25.30;;;;;;4892647;28;47078;-87
2023/12/01 15:10:58;;;;;;;2.40;2.20;;;23.70;25.40;;;;;;4886678;28;45524;-86
2023/12/01 15:13:25;;;;;;;2.73;2.53;;;23.60;25.30;;;;;;4924347;28;45238;-83
2023/12/01 15:15:51;;;;;;;2.97;2.40;;;23.70;25.40;;;;;;4911532;28;44883;-88
2023/12/01 15:18:21;;;;;;;2.80;2.50;;;23.60;25.30;;;;;;4903838;28;46203;-85
2023/12/01 15:20:47;;;;;;;2.75;2.40;;;23.60;25.30;;;;;;4902750;28;45365;-87
2023/12/01 15:23:13;;;;;;;2.60;2.30;;;23.60;25.30;;;;;;4904865;28;45303;-87
2023/12/01 15:25:39;;;;;;;2.58;2.38;;;23.60;25.30;;;;;;4900735;28;45610;-85
2023/12/01 15:28:05;;;;;;;2.83;2.50;;;23.60;25.30;;;;;;4891341;28;46477;-85
2023/12/01 15:30:31;;;;;;;2.70;2.50;;;23.60;25.40;;;;;;4913414;28;45140;-84
2023/12/01 15:32:57;;;;;;;2.80;2.50;;;23.60;25.40;;;;;;4914701;28;45650;-86
2023/12/01 15:35:22;;;;;;;2.78;2.45;;;23.50;25.30;;;;;;4916055;28;45141;-89
2023/12/01 15:37:48;;;;;;;2.85;2.55;;;23.50;25.30;;;;;;4919312;28;45227;-87
2023/12/01 15:40:15;;;;;;;2.70;2.40;;;23.50;25.30;;;;;;4902050;28;45337;-84
2023/12/01 15:42:41;;;;;;;3.05;2.70;;;23.50;25.30;;;;;;4917747;28;45458;-85
2023/12/01 15:45:07;;;;;;;2.80;2.60;;;23.50;25.30;;;;;;4872885;28;45291;-84
2023/12/01 15:47:34;;;;;;;2.67;2.47;;;23.50;25.40;;;;;;4897318;28;45364;-84
2023/12/01 15:50:09;;;;;;;2.90;2.60;;;23.50;25.30;;;;;;4890494;28;45560;-83
2023/12/01 15:52:35;;;;;;;2.80;2.60;;;23.50;25.40;;;;;;4919087;28;45534;-91
2023/12/01 15:55:04;;;;;;;2.70;2.50;;;23.50;25.40;;;;;;4908446;28;45700;-83
2023/12/01 15:57:30;;;;;;;3.20;2.50;;;23.40;25.40;;;;;;4870466;28;45603;-85
2023/12/01 15:59:55;;;;;;;2.72;2.45;;;23.50;25.40;;;;;;4915304;28;45339;-82
2023/12/01 16:02:23;;;;;;;2.80;2.60;;;23.50;25.40;;;;;;4902452;28;45332;-82
2023/12/01 16:04:50;;;;;;;2.97;2.63;;;23.40;25.40;;;;;;4898702;28;45649;-82
2023/12/01 16:07:15;;;;;;;3.10;2.70;;;23.40;25.40;;;;;;4886300;28;45334;-83
2023/12/01 16:09:41;;;;;;;2.53;2.33;;;23.40;25.40;;;;;;4882783;28;45225;-83
2023/12/01 16:12:07;;;;;;;2.60;2.40;;;23.40;25.40;;;;;;4894490;28;46493;-81
2023/12/01 16:14:33;;;;;;;3.10;2.80;;;23.40;25.40;;;;;;4867737;28;45928;-84
2023/12/01 16:16:59;;;;;;;3.13;2.75;;;23.40;25.40;;;;;;4882195;28;46377;-80
2023/12/01 16:19:25;;;;;;;3.13;2.83;;;23.40;25.40;;;;;;4881211;28;45719;-84
2023/12/01 16:21:54;;;;;;;3.70;2.90;;;23.40;25.40;;;;;;4891647;28;46336;-85
2023/12/01 16:24:20;;;;;;;3.27;2.80;;;23.30;25.40;;;;;;4879069;28;44935;-84
2023/12/01 16:26:45;;;;;;;3.17;2.77;;;23.30;25.40;;;;;;4893776;28;45630;-82
2023/12/01 16:29:11;;;;;;;2.90;2.70;;;23.30;25.40;;;;;;4880979;28;45486;-86
2023/12/01 16:31:37;;;;;;;3.20;2.90;;;23.30;25.40;;;;;;4891570;28;45366;-83
2023/12/01 16:34:03;;;;;;;3.47;3.17;;;23.30;25.50;;;;;;4881820;28;45310;-86
2023/12/01 16:36:28;;;;;;;3.83;3.43;;;23.30;25.50;;;;;;4882484;28;45960;-84
2023/12/01 16:38:55;;;;;;;4.00;3.58;;;23.20;25.50;;;;;;4899286;28;46624;-83
2023/12/01 16:41:21;;;;;;;3.50;3.20;;;23.20;25.50;;;;;;4884800;28;45663;-83
2023/12/01 16:43:47;;;;;;;3.67;3.37;;;23.20;25.50;;;;;;4888103;28;45356;-84
2023/12/01 16:46:13;;;;;;;3.93;3.40;;;23.10;25.50;;;;;;4883253;28;47351;-84
2023/12/01 16:48:39;;;;;;;4.30;3.70;;;23.10;25.40;;;;;;4874562;28;45198;-86
2023/12/01 16:51:05;;;;;;;4.00;3.60;;;23.10;25.40;;;;;;4870497;28;46267;-86
2023/12/01 16:53:31;;;;;;;4.05;3.65;;;23.10;25.50;;;;;;4889795;28;44796;-86
2023/12/01 16:55:56;;;;;;;4.43;4.03;;;23.10;25.40;;;;;;4902118;28;46595;-84
2023/12/01 16:58:22;;;;;;;4.30;3.70;;;23.10;25.10;;;;;;4884852;28;45273;-82
2023/12/01 17:00:47;;;;;;;4.40;3.90;;;23.10;25.50;;;;;;4865787;28;45728;-81
2023/12/01 17:03:13;;;;;;;4.67;3.93;;;23.00;25.40;;;;;;4887280;28;45354;-82
2023/12/01 17:05:40;;;;;;;4.13;3.72;;;23.10;25.50;;;;;;4915020;28;46900;-81
2023/12/01 17:08:05;;;;;;;4.32;3.92;;;23.00;25.40;;;;;;4934558;28;45588;-84
2023/12/01 17:10:31;;;;;;;4.30;3.90;;;23.00;25.40;;;;;;4917433;28;44755;-84
2023/12/01 17:12:56;;;;;;;4.70;4.20;;;23.00;25.40;;;;;;4900935;28;45390;-82
2023/12/01 17:15:22;;;;;;;4.87;3.80;;;23.00;25.40;;;;;;4901220;28;45439;-81
2023/12/01 17:17:49;;;;;;;4.72;4.10;;;23.00;25.40;;;;;;4918160;28;45233;-84
2023/12/01 17:20:14;;;;;;;4.40;4.00;;;23.00;25.90;;;;;;4904216;28;45120;-81
2023/12/01 17:22:42;;;;;;;4.13;3.70;;;23.00;25.50;;;;;;4882078;28;45299;-84
2023/12/01 17:25:09;;;;;;;4.60;4.10;;;22.90;25.40;;;;;;4917551;28;45622;-85
2023/12/01 17:27:34;;;;;;;4.65;4.07;;;23.00;25.50;;;;;;4902191;28;44883;-82
2023/12/01 17:30:00;;;;;;;4.93;4.43;;;23.00;25.40;;;;;;4907148;28;45885;-85
2023/12/01 17:32:26;;;;;;;5.10;4.20;;;23.00;25.40;;;;;;4899544;28;45447;-85